Terminal Aerodrome Forecast
Issued by NWS Mt. Holly, NJ

Home | Current Version | Previous Version | Text Only | Print | Product List | Glossary On
Versions: 1 2 3 4 5 6 7 8 9 10 11 12 13 14 15
000
FTUS41 KPHI 201700
TAFACY
TAF
KACY 201720Z 2018/2118 35008KT P6SM OVC025
     FM210000 33004KT P6SM SCT025 BKN200
     FM211400 35004KT P6SM SCT040=

USA.gov is the U.S. government's official web portal to all federal, state and local government web resources and services.